Perry, Illinois
Current Conditions -  °F | °C
As of 4:15 AM on Thursday 29 Jan 2015 (Local Time) from KPPQ Reporting Station
Clear Clear  
Wind Chill: 37°   Ceiling: Unl
Heat Index: 44°   Visibility: 10mi
Dew Point: 36°   Wind: 16mph
Humidity: 74%   Direction: 300°WNW
Pressure: 29.82"   Gusts: 31mph
Location:  39.78°N, 90.75°W
Report Text: KPPQ 291015Z AUTO 30014G27KT 10SM CLR 07/02 A2982 RMK AO2 T00660023
Loading
Personal Weather Stations






























Interactive Weather Map New forecast layout! Learn more

10-Day Weather Forecast

Advertisements
Track Severe Weather on mobile